sensor_id;sensor_type;location;lat;lon;timestamp;temperature;humidity
6110;DHT22;3085;49.444;11.054;2024-02-15T00:02:05;9.80;99.90
6110;DHT22;3085;49.444;11.054;2024-02-15T00:04:31;9.80;99.90
6110;DHT22;3085;49.444;11.054;2024-02-15T00:06:58;10.20;99.90
6110;DHT22;3085;49.444;11.054;2024-02-15T00:09:27;9.80;99.90
6110;DHT22;3085;49.444;11.054;2024-02-15T00:11:54;9.80;99.90
6110;DHT22;3085;49.444;11.054;2024-02-15T00:14:20;9.80;99.90
6110;DHT22;3085;49.444;11.054;2024-02-15T00:16:47;9.80;99.90
6110;DHT22;3085;49.444;11.054;2024-02-15T00:19:15;10.10;99.90
6110;DHT22;3085;49.444;11.054;2024-02-15T00:21:43;9.90;99.90
6110;DHT22;3085;49.444;11.054;2024-02-15T00:24:10;9.90;99.90
6110;DHT22;3085;49.444;11.054;2024-02-15T00:26:36;9.90;99.90
6110;DHT22;3085;49.444;11.054;2024-02-15T00:29:03;9.90;99.90
6110;DHT22;3085;49.444;11.054;2024-02-15T00:31:30;9.90;99.90
6110;DHT22;3085;49.444;11.054;2024-02-15T00:33:57;9.90;99.90
6110;DHT22;3085;49.444;11.054;2024-02-15T00:36:25;9.80;99.90
6110;DHT22;3085;49.444;11.054;2024-02-15T00:38:52;9.80;99.90
6110;DHT22;3085;49.444;11.054;2024-02-15T00:41:18;9.80;99.90
6110;DHT22;3085;49.444;11.054;2024-02-15T00:43:47;9.80;99.90
6110;DHT22;3085;49.444;11.054;2024-02-15T00:46:13;9.80;99.90
6110;DHT22;3085;49.444;11.054;2024-02-15T00:48:40;9.80;99.90
6110;DHT22;3085;49.444;11.054;2024-02-15T00:51:07;9.90;99.90
6110;DHT22;3085;49.444;11.054;2024-02-15T00:53:35;9.90;99.90
6110;DHT22;3085;49.444;11.054;2024-02-15T00:56:02;9.90;99.90
6110;DHT22;3085;49.444;11.054;2024-02-15T00:58:30;9.90;99.90
6110;DHT22;3085;49.444;11.054;2024-02-15T01:00:56;9.90;99.90
6110;DHT22;3085;49.444;11.054;2024-02-15T01:03:23;10.00;99.90
6110;DHT22;3085;49.444;11.054;2024-02-15T01:05:50;9.80;99.90
6110;DHT22;3085;49.444;11.054;2024-02-15T01:08:17;9.90;99.90
6110;DHT22;3085;49.444;11.054;2024-02-15T01:10:45;9.90;99.90
6110;DHT22;3085;49.444;11.054;2024-02-15T01:13:12;9.90;99.90
6110;DHT22;3085;49.444;11.054;2024-02-15T01:15:38;9.90;99.90
6110;DHT22;3085;49.444;11.054;2024-02-15T01:18:06;9.90;99.90
6110;DHT22;3085;49.444;11.054;2024-02-15T01:20:33;9.90;99.90
6110;DHT22;3085;49.444;11.054;2024-02-15T01:23:00;10.00;99.90
6110;DHT22;3085;49.444;11.054;2024-02-15T01:25:27;10.00;99.90
6110;DHT22;3085;49.444;11.054;2024-02-15T01:27:55;10.00;99.90
6110;DHT22;3085;49.444;11.054;2024-02-15T01:30:22;10.00;99.90
6110;DHT22;3085;49.444;11.054;2024-02-15T01:32:48;10.10;99.90
6110;DHT22;3085;49.444;11.054;2024-02-15T01:35:15;10.10;99.90
6110;DHT22;3085;49.444;11.054;2024-02-15T01:37:42;10.00;99.90
6110;DHT22;3085;49.444;11.054;2024-02-15T01:40:09;10.00;99.90
6110;DHT22;3085;49.444;11.054;2024-02-15T01:42:38;10.00;99.90
6110;DHT22;3085;49.444;11.054;2024-02-15T01:45:07;10.00;99.90
6110;DHT22;3085;49.444;11.054;2024-02-15T01:47:35;10.00;99.90
6110;DHT22;3085;49.444;11.054;2024-02-15T01:50:03;10.00;99.90
6110;DHT22;3085;49.444;11.054;2024-02-15T01:52:30;10.00;99.90
6110;DHT22;3085;49.444;11.054;2024-02-15T01:54:57;10.00;99.90
6110;DHT22;3085;49.444;11.054;2024-02-15T01:57:24;10.00;99.90
6110;DHT22;3085;49.444;11.054;2024-02-15T01:59:51;10.00;99.90
6110;DHT22;3085;49.444;11.054;2024-02-15T02:02:20;10.00;99.90
6110;DHT22;3085;49.444;11.054;2024-02-15T02:04:49;10.00;99.90
6110;DHT22;3085;49.444;11.054;2024-02-15T02:07:16;10.00;99.90
6110;DHT22;3085;49.444;11.054;2024-02-15T02:09:43;10.00;99.90
6110;DHT22;3085;49.444;11.054;2024-02-15T02:12:11;9.90;99.90
6110;DHT22;3085;49.444;11.054;2024-02-15T02:14:37;9.90;99.90
6110;DHT22;3085;49.444;11.054;2024-02-15T02:17:11;9.90;99.90
6110;DHT22;3085;49.444;11.054;2024-02-15T02:19:41;9.90;99.90
6110;DHT22;3085;49.444;11.054;2024-02-15T02:22:09;9.90;99.90
6110;DHT22;3085;49.444;11.054;2024-02-15T02:24:43;9.80;99.90
6110;DHT22;3085;49.444;11.054;2024-02-15T02:27:13;9.90;99.90
6110;DHT22;3085;49.444;11.054;2024-02-15T02:29:42;9.90;99.90
6110;DHT22;3085;49.444;11.054;2024-02-15T02:32:10;9.90;99.90
6110;DHT22;3085;49.444;11.054;2024-02-15T02:34:37;9.80;99.90
6110;DHT22;3085;49.444;11.054;2024-02-15T02:37:04;9.90;99.90
6110;DHT22;3085;49.444;11.054;2024-02-15T02:39:33;9.90;99.90
6110;DHT22;3085;49.444;11.054;2024-02-15T02:42:00;9.90;99.90
6110;DHT22;3085;49.444;11.054;2024-02-15T02:44:28;9.90;99.90
6110;DHT22;3085;49.444;11.054;2024-02-15T02:46:54;10.00;99.90
6110;DHT22;3085;49.444;11.054;2024-02-15T02:49:21;9.90;99.90
6110;DHT22;3085;49.444;11.054;2024-02-15T02:51:48;9.90;99.90
6110;DHT22;3085;49.444;11.054;2024-02-15T02:54:15;10.00;99.90
6110;DHT22;3085;49.444;11.054;2024-02-15T02:56:41;9.90;99.90
6110;DHT22;3085;49.444;11.054;2024-02-15T02:59:09;9.90;99.90
6110;DHT22;3085;49.444;11.054;2024-02-15T03:01:37;9.90;99.90
6110;DHT22;3085;49.444;11.054;2024-02-15T03:04:05;9.90;99.90
6110;DHT22;3085;49.444;11.054;2024-02-15T03:06:31;9.90;99.90
6110;DHT22;3085;49.444;11.054;2024-02-15T03:08:58;9.90;99.90
6110;DHT22;3085;49.444;11.054;2024-02-15T03:11:25;9.90;99.90
6110;DHT22;3085;49.444;11.054;2024-02-15T03:13:51;9.90;99.90
6110;DHT22;3085;49.444;11.054;2024-02-15T03:16:21;9.90;99.90
6110;DHT22;3085;49.444;11.054;2024-02-15T03:18:51;10.00;99.90
6110;DHT22;3085;49.444;11.054;2024-02-15T03:21:19;10.00;99.90
6110;DHT22;3085;49.444;11.054;2024-02-15T03:23:45;9.90;99.90
6110;DHT22;3085;49.444;11.054;2024-02-15T03:26:12;9.90;99.90
6110;DHT22;3085;49.444;11.054;2024-02-15T03:28:39;9.80;99.90
6110;DHT22;3085;49.444;11.054;2024-02-15T03:31:06;9.90;99.90
6110;DHT22;3085;49.444;11.054;2024-02-15T03:33:33;9.90;99.90
6110;DHT22;3085;49.444;11.054;2024-02-15T03:36:02;9.90;99.90
6110;DHT22;3085;49.444;11.054;2024-02-15T03:38:28;9.90;99.90
6110;DHT22;3085;49.444;11.054;2024-02-15T03:40:55;9.90;99.90
6110;DHT22;3085;49.444;11.054;2024-02-15T03:43:22;9.90;99.90
6110;DHT22;3085;49.444;11.054;2024-02-15T03:45:49;9.90;99.90
6110;DHT22;3085;49.444;11.054;2024-02-15T03:48:16;9.90;99.90
6110;DHT22;3085;49.444;11.054;2024-02-15T03:50:43;9.90;99.90
6110;DHT22;3085;49.444;11.054;2024-02-15T03:53:12;9.90;99.90
6110;DHT22;3085;49.444;11.054;2024-02-15T03:55:39;9.90;99.90
6110;DHT22;3085;49.444;11.054;2024-02-15T03:58:06;9.90;99.90
6110;DHT22;3085;49.444;11.054;2024-02-15T04:00:34;10.00;99.90
6110;DHT22;3085;49.444;11.054;2024-02-15T04:03:01;10.00;99.90
6110;DHT22;3085;49.444;11.054;2024-02-15T04:05:27;10.00;99.90
6110;DHT22;3085;49.444;11.054;2024-02-15T04:07:54;10.00;99.90
6110;DHT22;3085;49.444;11.054;2024-02-15T04:10:22;10.00;99.90
6110;DHT22;3085;49.444;11.054;2024-02-15T04:12:49;10.00;99.90
6110;DHT22;3085;49.444;11.054;2024-02-15T04:15:16;10.00;99.90
6110;DHT22;3085;49.444;11.054;2024-02-15T04:17:43;9.90;99.90
6110;DHT22;3085;49.444;11.054;2024-02-15T04:20:10;10.00;99.90
6110;DHT22;3085;49.444;11.054;2024-02-15T04:22:40;9.90;99.90
6110;DHT22;3085;49.444;11.054;2024-02-15T04:25:09;9.90;99.90
6110;DHT22;3085;49.444;11.054;2024-02-15T04:27:37;9.90;99.90
6110;DHT22;3085;49.444;11.054;2024-02-15T04:30:05;9.90;99.90
6110;DHT22;3085;49.444;11.054;2024-02-15T04:32:34;9.80;99.90
6110;DHT22;3085;49.444;11.054;2024-02-15T04:35:01;9.80;99.90
6110;DHT22;3085;49.444;11.054;2024-02-15T04:37:29;9.80;99.90
6110;DHT22;3085;49.444;11.054;2024-02-15T04:39:58;9.80;99.90
6110;DHT22;3085;49.444;11.054;2024-02-15T04:42:31;9.90;99.90
6110;DHT22;3085;49.444;11.054;2024-02-15T04:45:01;9.70;99.90
6110;DHT22;3085;49.444;11.054;2024-02-15T04:47:27;9.80;99.90
6110;DHT22;3085;49.444;11.054;2024-02-15T04:49:55;10.60;99.90
6110;DHT22;3085;49.444;11.054;2024-02-15T04:52:22;9.80;99.90
6110;DHT22;3085;49.444;11.054;2024-02-15T04:54:49;9.80;99.90
6110;DHT22;3085;49.444;11.054;2024-02-15T04:57:15;9.80;99.90
6110;DHT22;3085;49.444;11.054;2024-02-15T04:59:43;9.80;99.90
6110;DHT22;3085;49.444;11.054;2024-02-15T05:02:14;9.80;99.90
6110;DHT22;3085;49.444;11.054;2024-02-15T05:04:40;9.80;99.90
6110;DHT22;3085;49.444;11.054;2024-02-15T05:07:08;9.70;99.90
6110;DHT22;3085;49.444;11.054;2024-02-15T05:09:34;9.70;99.90
6110;DHT22;3085;49.444;11.054;2024-02-15T05:12:01;9.60;99.90
6110;DHT22;3085;49.444;11.054;2024-02-15T05:14:29;9.60;99.90
6110;DHT22;3085;49.444;11.054;2024-02-15T05:16:56;9.60;99.90
6110;DHT22;3085;49.444;11.054;2024-02-15T05:19:24;9.60;99.90
6110;DHT22;3085;49.444;11.054;2024-02-15T05:21:50;9.60;99.90
6110;DHT22;3085;49.444;11.054;2024-02-15T05:24:17;9.60;99.90
6110;DHT22;3085;49.444;11.054;2024-02-15T05:26:45;9.60;99.90
6110;DHT22;3085;49.444;11.054;2024-02-15T05:29:14;9.60;99.90
6110;DHT22;3085;49.444;11.054;2024-02-15T05:31:41;9.60;99.90
6110;DHT22;3085;49.444;11.054;2024-02-15T05:34:09;9.60;99.90
6110;DHT22;3085;49.444;11.054;2024-02-15T05:36:38;9.60;99.90
6110;DHT22;3085;49.444;11.054;2024-02-15T05:39:05;9.80;99.90
6110;DHT22;3085;49.444;11.054;2024-02-15T05:41:32;9.60;99.90
6110;DHT22;3085;49.444;11.054;2024-02-15T05:43:59;9.60;99.90
6110;DHT22;3085;49.444;11.054;2024-02-15T05:46:26;9.70;99.90
6110;DHT22;3085;49.444;11.054;2024-02-15T05:48:54;9.70;99.90
6110;DHT22;3085;49.444;11.054;2024-02-15T05:51:22;9.70;99.90
6110;DHT22;3085;49.444;11.054;2024-02-15T05:53:50;9.60;99.90
6110;DHT22;3085;49.444;11.054;2024-02-15T05:56:19;9.60;99.90
6110;DHT22;3085;49.444;11.054;2024-02-15T05:58:45;9.60;99.90
6110;DHT22;3085;49.444;11.054;2024-02-15T06:01:12;9.60;99.90
6110;DHT22;3085;49.444;11.054;2024-02-15T06:03:39;9.70;99.90
6110;DHT22;3085;49.444;11.054;2024-02-15T06:06:09;9.60;99.90
6110;DHT22;3085;49.444;11.054;2024-02-15T06:08:37;9.60;99.90
6110;DHT22;3085;49.444;11.054;2024-02-15T06:11:05;9.60;99.90
6110;DHT22;3085;49.444;11.054;2024-02-15T06:13:32;9.60;99.90
6110;DHT22;3085;49.444;11.054;2024-02-15T06:16:00;9.60;99.90
6110;DHT22;3085;49.444;11.054;2024-02-15T06:18:28;9.60;99.90
6110;DHT22;3085;49.444;11.054;2024-02-15T06:20:55;9.60;99.90
6110;DHT22;3085;49.444;11.054;2024-02-15T06:23:22;9.60;99.90
6110;DHT22;3085;49.444;11.054;2024-02-15T06:25:51;9.50;99.90
6110;DHT22;3085;49.444;11.054;2024-02-15T06:28:20;9.60;99.90
6110;DHT22;3085;49.444;11.054;2024-02-15T06:31:00;9.60;99.90
6110;DHT22;3085;49.444;11.054;2024-02-15T06:33:45;9.60;99.90
6110;DHT22;3085;49.444;11.054;2024-02-15T06:36:29;9.60;99.90
6110;DHT22;3085;49.444;11.054;2024-02-15T06:39:13;9.60;99.90
6110;DHT22;3085;49.444;11.054;2024-02-15T06:41:57;9.50;99.90
6110;DHT22;3085;49.444;11.054;2024-02-15T06:44:25;9.50;99.90
6110;DHT22;3085;49.444;11.054;2024-02-15T06:46:52;9.50;99.90
6110;DHT22;3085;49.444;11.054;2024-02-15T06:49:19;9.50;99.90
6110;DHT22;3085;49.444;11.054;2024-02-15T06:51:47;9.50;99.90
6110;DHT22;3085;49.444;11.054;2024-02-15T06:54:14;9.50;99.90
6110;DHT22;3085;49.444;11.054;2024-02-15T06:56:42;10.00;99.90
6110;DHT22;3085;49.444;11.054;2024-02-15T06:59:10;10.00;99.90
6110;DHT22;3085;49.444;11.054;2024-02-15T07:01:40;10.00;99.90
6110;DHT22;3085;49.444;11.054;2024-02-15T07:04:07;10.10;99.90
6110;DHT22;3085;49.444;11.054;2024-02-15T07:06:36;10.10;99.90
6110;DHT22;3085;49.444;11.054;2024-02-15T07:09:05;10.10;99.90
6110;DHT22;3085;49.444;11.054;2024-02-15T07:11:32;10.10;99.90
6110;DHT22;3085;49.444;11.054;2024-02-15T07:14:00;10.00;99.90
6110;DHT22;3085;49.444;11.054;2024-02-15T07:16:26;9.90;99.90
6110;DHT22;3085;49.444;11.054;2024-02-15T07:18:54;10.00;99.90
6110;DHT22;3085;49.444;11.054;2024-02-15T07:21:21;9.90;99.90
6110;DHT22;3085;49.444;11.054;2024-02-15T07:23:51;9.90;99.90
6110;DHT22;3085;49.444;11.054;2024-02-15T07:26:19;9.90;99.90
6110;DHT22;3085;49.444;11.054;2024-02-15T07:28:49;9.90;99.90
6110;DHT22;3085;49.444;11.054;2024-02-15T07:31:18;10.00;99.90
6110;DHT22;3085;49.444;11.054;2024-02-15T07:33:44;10.00;99.90
6110;DHT22;3085;49.444;11.054;2024-02-15T07:36:13;9.90;99.90
6110;DHT22;3085;49.444;11.054;2024-02-15T07:38:39;10.00;99.90
6110;DHT22;3085;49.444;11.054;2024-02-15T07:41:06;10.00;99.90
6110;DHT22;3085;49.444;11.054;2024-02-15T07:43:32;10.00;99.90
6110;DHT22;3085;49.444;11.054;2024-02-15T07:46:01;9.90;99.90
6110;DHT22;3085;49.444;11.054;2024-02-15T07:48:30;9.90;99.90
6110;DHT22;3085;49.444;11.054;2024-02-15T07:50:59;10.00;99.90
6110;DHT22;3085;49.444;11.054;2024-02-15T07:53:29;9.90;99.90
6110;DHT22;3085;49.444;11.054;2024-02-15T07:55:56;9.90;99.90
6110;DHT22;3085;49.444;11.054;2024-02-15T07:58:23;9.90;99.90
6110;DHT22;3085;49.444;11.054;2024-02-15T08:00:50;10.00;99.90
6110;DHT22;3085;49.444;11.054;2024-02-15T08:03:17;10.00;99.90
6110;DHT22;3085;49.444;11.054;2024-02-15T08:05:43;10.00;99.90
6110;DHT22;3085;49.444;11.054;2024-02-15T08:08:10;10.00;99.90
6110;DHT22;3085;49.444;11.054;2024-02-15T08:10:38;10.00;99.90
6110;DHT22;3085;49.444;11.054;2024-02-15T08:13:05;10.00;99.90
6110;DHT22;3085;49.444;11.054;2024-02-15T08:15:34;10.00;99.90
6110;DHT22;3085;49.444;11.054;2024-02-15T08:18:01;10.00;99.90
6110;DHT22;3085;49.444;11.054;2024-02-15T08:20:34;9.90;99.90
6110;DHT22;3085;49.444;11.054;2024-02-15T08:23:01;10.00;99.90
6110;DHT22;3085;49.444;11.054;2024-02-15T08:25:27;10.00;99.90
6110;DHT22;3085;49.444;11.054;2024-02-15T08:27:56;10.00;99.90
6110;DHT22;3085;49.444;11.054;2024-02-15T08:30:22;10.00;99.90
6110;DHT22;3085;49.444;11.054;2024-02-15T08:32:49;10.00;99.90
6110;DHT22;3085;49.444;11.054;2024-02-15T08:35:17;10.00;99.90
6110;DHT22;3085;49.444;11.054;2024-02-15T08:37:44;10.00;99.90
6110;DHT22;3085;49.444;11.054;2024-02-15T08:40:13;10.00;99.90
6110;DHT22;3085;49.444;11.054;2024-02-15T08:42:44;10.00;99.90
6110;DHT22;3085;49.444;11.054;2024-02-15T08:45:12;10.10;99.90
6110;DHT22;3085;49.444;11.054;2024-02-15T08:47:40;10.10;99.90
6110;DHT22;3085;49.444;11.054;2024-02-15T08:50:08;10.20;99.90
6110;DHT22;3085;49.444;11.054;2024-02-15T08:52:36;10.30;99.90
6110;DHT22;3085;49.444;11.054;2024-02-15T08:55:04;10.20;99.90
6110;DHT22;3085;49.444;11.054;2024-02-15T08:57:32;10.20;99.90
6110;DHT22;3085;49.444;11.054;2024-02-15T08:59:59;10.20;99.90
6110;DHT22;3085;49.444;11.054;2024-02-15T09:02:27;10.20;99.90
6110;DHT22;3085;49.444;11.054;2024-02-15T09:04:53;10.20;99.90
6110;DHT22;3085;49.444;11.054;2024-02-15T09:07:20;10.20;99.90
6110;DHT22;3085;49.444;11.054;2024-02-15T09:09:47;10.20;99.90
6110;DHT22;3085;49.444;11.054;2024-02-15T09:12:14;10.30;99.90
6110;DHT22;3085;49.444;11.054;2024-02-15T09:14:41;10.30;99.90
6110;DHT22;3085;49.444;11.054;2024-02-15T09:17:07;10.40;99.90
6110;DHT22;3085;49.444;11.054;2024-02-15T09:19:35;10.50;99.90
6110;DHT22;3085;49.444;11.054;2024-02-15T09:22:02;11.60;99.90
6110;DHT22;3085;49.444;11.054;2024-02-15T09:24:30;10.60;99.90
6110;DHT22;3085;49.444;11.054;2024-02-15T09:26:58;10.70;99.90
6110;DHT22;3085;49.444;11.054;2024-02-15T09:29:26;10.70;99.90
6110;DHT22;3085;49.444;11.054;2024-02-15T09:31:55;10.80;99.90
6110;DHT22;3085;49.444;11.054;2024-02-15T09:34:22;10.80;99.90
6110;DHT22;3085;49.444;11.054;2024-02-15T09:36:50;10.80;99.90
6110;DHT22;3085;49.444;11.054;2024-02-15T09:39:17;10.80;99.90
6110;DHT22;3085;49.444;11.054;2024-02-15T09:41:43;10.80;99.90
6110;DHT22;3085;49.444;11.054;2024-02-15T09:44:10;10.90;99.90
6110;DHT22;3085;49.444;11.054;2024-02-15T09:46:43;10.90;99.90
6110;DHT22;3085;49.444;11.054;2024-02-15T09:49:11;11.00;99.90
6110;DHT22;3085;49.444;11.054;2024-02-15T09:51:39;11.00;99.90
6110;DHT22;3085;49.444;11.054;2024-02-15T09:54:08;11.10;99.90
6110;DHT22;3085;49.444;11.054;2024-02-15T09:56:35;11.10;99.90
6110;DHT22;3085;49.444;11.054;2024-02-15T09:59:03;11.10;99.90
6110;DHT22;3085;49.444;11.054;2024-02-15T10:01:31;11.20;99.90
6110;DHT22;3085;49.444;11.054;2024-02-15T10:03:58;11.30;99.90
6110;DHT22;3085;49.444;11.054;2024-02-15T10:06:25;11.30;99.90
6110;DHT22;3085;49.444;11.054;2024-02-15T10:08:52;11.40;99.90
6110;DHT22;3085;49.444;11.054;2024-02-15T10:11:21;11.40;99.90
6110;DHT22;3085;49.444;11.054;2024-02-15T10:13:47;11.50;99.90
6110;DHT22;3085;49.444;11.054;2024-02-15T10:16:15;11.50;99.90
6110;DHT22;3085;49.444;11.054;2024-02-15T10:18:42;11.60;99.90
6110;DHT22;3085;49.444;11.054;2024-02-15T10:21:09;11.60;99.90
6110;DHT22;3085;49.444;11.054;2024-02-15T10:23:36;11.70;99.90
6110;DHT22;3085;49.444;11.054;2024-02-15T10:26:20;11.70;99.90
6110;DHT22;3085;49.444;11.054;2024-02-15T10:29:05;11.80;99.90
6110;DHT22;3085;49.444;11.054;2024-02-15T10:31:32;11.90;99.90
6110;DHT22;3085;49.444;11.054;2024-02-15T10:34:03;11.90;99.90
6110;DHT22;3085;49.444;11.054;2024-02-15T10:36:30;12.00;99.90
6110;DHT22;3085;49.444;11.054;2024-02-15T10:39:10;12.10;99.90
6110;DHT22;3085;49.444;11.054;2024-02-15T10:41:43;12.10;99.90
6110;DHT22;3085;49.444;11.054;2024-02-15T10:44:14;12.10;99.90
6110;DHT22;3085;49.444;11.054;2024-02-15T10:46:42;12.10;99.90
6110;DHT22;3085;49.444;11.054;2024-02-15T10:49:09;12.20;99.90
6110;DHT22;3085;49.444;11.054;2024-02-15T10:51:37;12.20;99.90
6110;DHT22;3085;49.444;11.054;2024-02-15T10:54:08;12.30;99.90
6110;DHT22;3085;49.444;11.054;2024-02-15T10:56:43;12.30;99.90
6110;DHT22;3085;49.444;11.054;2024-02-15T10:59:17;12.60;99.90
6110;DHT22;3085;49.444;11.054;2024-02-15T11:01:46;12.40;99.90
6110;DHT22;3085;49.444;11.054;2024-02-15T11:04:15;12.40;99.90
6110;DHT22;3085;49.444;11.054;2024-02-15T11:06:42;12.50;99.90
6110;DHT22;3085;49.444;11.054;2024-02-15T11:09:10;12.60;99.90
6110;DHT22;3085;49.444;11.054;2024-02-15T11:11:39;12.60;99.90
6110;DHT22;3085;49.444;11.054;2024-02-15T11:14:34;12.60;99.90
6110;DHT22;3085;49.444;11.054;2024-02-15T11:17:02;12.70;99.90
6110;DHT22;3085;49.444;11.054;2024-02-15T11:19:41;12.70;99.90
6110;DHT22;3085;49.444;11.054;2024-02-15T11:22:12;12.80;99.90
6110;DHT22;3085;49.444;11.054;2024-02-15T11:24:46;12.80;99.90
6110;DHT22;3085;49.444;11.054;2024-02-15T11:27:24;12.90;99.90
6110;DHT22;3085;49.444;11.054;2024-02-15T11:29:55;12.90;99.90
6110;DHT22;3085;49.444;11.054;2024-02-15T11:32:44;13.00;99.90
6110;DHT22;3085;49.444;11.054;2024-02-15T11:35:13;13.10;99.90
6110;DHT22;3085;49.444;11.054;2024-02-15T11:37:54;13.00;99.90
6110;DHT22;3085;49.444;11.054;2024-02-15T11:40:25;13.00;99.90
6110;DHT22;3085;49.444;11.054;2024-02-15T11:42:53;13.10;99.90
6110;DHT22;3085;49.444;11.054;2024-02-15T11:45:21;13.10;99.90
6110;DHT22;3085;49.444;11.054;2024-02-15T11:47:51;13.20;99.90
6110;DHT22;3085;49.444;11.054;2024-02-15T11:50:20;13.20;99.90
6110;DHT22;3085;49.444;11.054;2024-02-15T11:52:48;13.30;99.90
6110;DHT22;3085;49.444;11.054;2024-02-15T11:55:18;13.40;99.90
6110;DHT22;3085;49.444;11.054;2024-02-15T11:57:54;13.40;99.90
6110;DHT22;3085;49.444;11.054;2024-02-15T12:00:29;13.50;99.90
6110;DHT22;3085;49.444;11.054;2024-02-15T12:03:14;13.50;99.90
6110;DHT22;3085;49.444;11.054;2024-02-15T12:05:59;13.50;99.90
6110;DHT22;3085;49.444;11.054;2024-02-15T12:08:44;13.60;99.90
6110;DHT22;3085;49.444;11.054;2024-02-15T12:11:29;13.60;99.90
6110;DHT22;3085;49.444;11.054;2024-02-15T12:14:14;13.60;99.90
6110;DHT22;3085;49.444;11.054;2024-02-15T12:17:01;13.60;99.90
6110;DHT22;3085;49.444;11.054;2024-02-15T12:19:48;13.70;99.90
6110;DHT22;3085;49.444;11.054;2024-02-15T12:22:16;13.70;99.90
6110;DHT22;3085;49.444;11.054;2024-02-15T12:24:52;13.70;99.90
6110;DHT22;3085;49.444;11.054;2024-02-15T12:27:19;13.80;99.90
6110;DHT22;3085;49.444;11.054;2024-02-15T12:29:51;13.90;99.90
6110;DHT22;3085;49.444;11.054;2024-02-15T12:32:21;13.90;99.90
6110;DHT22;3085;49.444;11.054;2024-02-15T12:34:48;14.00;99.90
6110;DHT22;3085;49.444;11.054;2024-02-15T12:37:17;14.00;99.90
6110;DHT22;3085;49.444;11.054;2024-02-15T12:39:46;14.10;99.90
6110;DHT22;3085;49.444;11.054;2024-02-15T12:42:13;14.10;99.90
6110;DHT22;3085;49.444;11.054;2024-02-15T12:44:43;14.00;99.90
6110;DHT22;3085;49.444;11.054;2024-02-15T12:47:18;14.10;99.90
6110;DHT22;3085;49.444;11.054;2024-02-15T12:49:46;14.20;99.90
6110;DHT22;3085;49.444;11.054;2024-02-15T12:52:32;14.20;99.90
6110;DHT22;3085;49.444;11.054;2024-02-15T12:55:13;14.20;99.90
6110;DHT22;3085;49.444;11.054;2024-02-15T12:57:41;14.40;99.90
6110;DHT22;3085;49.444;11.054;2024-02-15T13:00:11;14.40;99.90
6110;DHT22;3085;49.444;11.054;2024-02-15T13:02:43;14.50;99.90
6110;DHT22;3085;49.444;11.054;2024-02-15T13:05:11;14.60;99.90
6110;DHT22;3085;49.444;11.054;2024-02-15T13:07:39;14.60;99.90
6110;DHT22;3085;49.444;11.054;2024-02-15T13:10:06;14.50;99.90
6110;DHT22;3085;49.444;11.054;2024-02-15T13:12:34;14.60;99.90
6110;DHT22;3085;49.444;11.054;2024-02-15T13:15:02;14.70;99.90
6110;DHT22;3085;49.444;11.054;2024-02-15T13:17:30;14.80;99.90
6110;DHT22;3085;49.444;11.054;2024-02-15T13:19:57;14.80;99.90
6110;DHT22;3085;49.444;11.054;2024-02-15T13:22:31;14.80;99.90
6110;DHT22;3085;49.444;11.054;2024-02-15T13:24:59;14.80;99.90
6110;DHT22;3085;49.444;11.054;2024-02-15T13:27:26;14.80;99.90
6110;DHT22;3085;49.444;11.054;2024-02-15T13:29:52;14.80;99.90
6110;DHT22;3085;49.444;11.054;2024-02-15T13:32:20;14.80;99.90
6110;DHT22;3085;49.444;11.054;2024-02-15T13:34:47;14.90;99.90
6110;DHT22;3085;49.444;11.054;2024-02-15T13:37:17;14.90;99.90
6110;DHT22;3085;49.444;11.054;2024-02-15T13:39:47;14.90;99.90
6110;DHT22;3085;49.444;11.054;2024-02-15T13:42:13;14.90;99.90
6110;DHT22;3085;49.444;11.054;2024-02-15T13:44:40;14.80;99.90
6110;DHT22;3085;49.444;11.054;2024-02-15T13:47:07;14.90;99.90
6110;DHT22;3085;49.444;11.054;2024-02-15T13:49:33;14.80;99.90
6110;DHT22;3085;49.444;11.054;2024-02-15T13:52:00;14.80;99.90
6110;DHT22;3085;49.444;11.054;2024-02-15T13:54:29;14.80;99.90
6110;DHT22;3085;49.444;11.054;2024-02-15T13:56:57;14.80;99.90
6110;DHT22;3085;49.444;11.054;2024-02-15T13:59:26;14.80;99.90
6110;DHT22;3085;49.444;11.054;2024-02-15T14:01:52;14.90;99.90
6110;DHT22;3085;49.444;11.054;2024-02-15T14:04:19;14.90;99.90
6110;DHT22;3085;49.444;11.054;2024-02-15T14:06:46;15.00;99.90
6110;DHT22;3085;49.444;11.054;2024-02-15T14:09:14;14.90;99.90
6110;DHT22;3085;49.444;11.054;2024-02-15T14:11:42;15.00;99.90
6110;DHT22;3085;49.444;11.054;2024-02-15T14:14:11;15.00;99.90
6110;DHT22;3085;49.444;11.054;2024-02-15T14:16:37;15.00;99.90
6110;DHT22;3085;49.444;11.054;2024-02-15T14:19:04;15.00;99.90
6110;DHT22;3085;49.444;11.054;2024-02-15T14:21:31;15.00;99.90
6110;DHT22;3085;49.444;11.054;2024-02-15T14:24:05;15.10;99.90
6110;DHT22;3085;49.444;11.054;2024-02-15T14:26:34;15.10;99.90
6110;DHT22;3085;49.444;11.054;2024-02-15T14:29:01;15.10;99.90
6110;DHT22;3085;49.444;11.054;2024-02-15T14:31:30;15.10;99.90
6110;DHT22;3085;49.444;11.054;2024-02-15T14:34:14;15.10;99.90
6110;DHT22;3085;49.444;11.054;2024-02-15T14:36:41;15.10;99.90
6110;DHT22;3085;49.444;11.054;2024-02-15T14:39:08;15.10;99.90
6110;DHT22;3085;49.444;11.054;2024-02-15T14:41:35;15.10;99.90
6110;DHT22;3085;49.444;11.054;2024-02-15T14:44:03;15.10;99.90
6110;DHT22;3085;49.444;11.054;2024-02-15T14:46:32;15.10;99.90
6110;DHT22;3085;49.444;11.054;2024-02-15T14:49:01;15.20;99.90
6110;DHT22;3085;49.444;11.054;2024-02-15T14:51:27;15.20;99.90
6110;DHT22;3085;49.444;11.054;2024-02-15T14:53:54;15.20;99.90
6110;DHT22;3085;49.444;11.054;2024-02-15T14:56:21;15.30;99.90
6110;DHT22;3085;49.444;11.054;2024-02-15T14:58:48;15.40;99.90
6110;DHT22;3085;49.444;11.054;2024-02-15T15:01:14;15.80;99.90
6110;DHT22;3085;49.444;11.054;2024-02-15T15:03:42;16.30;99.90
6110;DHT22;3085;49.444;11.054;2024-02-15T15:06:09;16.70;99.90
6110;DHT22;3085;49.444;11.054;2024-02-15T15:08:53;16.90;99.90
6110;DHT22;3085;49.444;11.054;2024-02-15T15:11:51;17.00;99.90
6110;DHT22;3085;49.444;11.054;2024-02-15T15:14:36;17.00;99.90
6110;DHT22;3085;49.444;11.054;2024-02-15T15:17:03;16.80;99.90
6110;DHT22;3085;49.444;11.054;2024-02-15T15:19:31;16.60;99.90
6110;DHT22;3085;49.444;11.054;2024-02-15T15:21:58;16.30;99.90
6110;DHT22;3085;49.444;11.054;2024-02-15T15:24:25;16.00;99.90
6110;DHT22;3085;49.444;11.054;2024-02-15T15:26:52;15.80;99.90
6110;DHT22;3085;49.444;11.054;2024-02-15T15:29:18;15.70;99.90
6110;DHT22;3085;49.444;11.054;2024-02-15T15:31:45;15.50;99.90
6110;DHT22;3085;49.444;11.054;2024-02-15T15:34:12;15.40;99.90
6110;DHT22;3085;49.444;11.054;2024-02-15T15:36:40;15.20;99.90
6110;DHT22;3085;49.444;11.054;2024-02-15T15:39:07;15.20;99.90
6110;DHT22;3085;49.444;11.054;2024-02-15T15:41:36;15.10;99.90
6110;DHT22;3085;49.444;11.054;2024-02-15T15:44:04;15.00;99.90
6110;DHT22;3085;49.444;11.054;2024-02-15T15:46:30;14.90;99.90
6110;DHT22;3085;49.444;11.054;2024-02-15T15:48:59;14.80;99.90
6110;DHT22;3085;49.444;11.054;2024-02-15T15:51:26;14.80;99.90
6110;DHT22;3085;49.444;11.054;2024-02-15T15:53:54;14.70;99.90
6110;DHT22;3085;49.444;11.054;2024-02-15T15:56:21;14.70;99.90
6110;DHT22;3085;49.444;11.054;2024-02-15T15:58:48;14.60;99.90
6110;DHT22;3085;49.444;11.054;2024-02-15T16:01:15;14.60;99.90
6110;DHT22;3085;49.444;11.054;2024-02-15T16:03:48;14.50;99.90